KSRQ/SRQ METAR and TAF weather

Enter ICAO airport designator
Station Type Date Time Source
KSRQ METAR 2022/01/29 09:53 UTC NOAA

KSRQ 290953Z AUTO 33021G30KT 10SM BKN060 11/M01 A3008 RMK AO2 PK WND 32030/0953 SLP186 T01061011


Station Type Date Time Source
KSRQ Decoded METAR 2022/01/29 09:53 UTC NOAA

SARASOTA/BRADENTON INTERNATIONAL ., FL, United States (KSRQ) 27-24N 082-33W 18M
Jan 29, 2022 - 04:53 AM EST / 2022.01.29 0953 UTC
Wind: from the NNW (330 degrees) at 24 MPH (21 KT) gusting to 35 MPH (30 KT):0
Visibility: 10 mile(s):0
Sky conditions: mostly cloudy
Temperature: 51.1 F (10.6 C)
Dew Point: 30.0 F (-1.1 C)
Relative Humidity: 44%
Pressure (altimeter): 30.08 in. Hg (1018 hPa)
ob: KSRQ 290953Z AUTO 33021G30KT 10SM BKN060 11/M01 A3008 RMK AO2 PK WND 32030/0953 SLP186 T01061011
cycle: 10

Station Type Date Time Source
KSRQ TAF 2022/01/29 09:28 UTC NOAA

TAF
AMD KSRQ 290926Z 2909/3006 32017G25KT P6SM SCT050
FM292000 34017G26KT P6SM SKC
FM300000 33010KT P6SM SKC

Example: see airport list